sim
Sign-in with your pilot id or email,
or register
Callsign
Passwort

Schedule Details

Flight Number: RYR5082 (2)
Departure: Paphos International Airport (LCPH) at 20:05
Arrival: Thessaloniki International Airport (LGTS) at 22:10
Route: Ryanair Passenger Schedule. Enter filed route here before submitting Pirep.

Weather Information
Getting current METAR information for LCPH 211200Z 15006KT 120V180 9999 FEW020 FEW030CB 18/09 Q1019
Getting current METAR information for LGTS 211220Z 34013KT 9999 FEW030 16/00 Q1022 NOSIG

Schedule Frequency

Route Map